createdAt,value
2018-08-06T00:02:08.348Z,21.40
2018-08-06T00:07:11.641Z,21.40
2018-08-06T00:12:14.709Z,21.40
2018-08-06T00:17:17.741Z,21.40
2018-08-06T00:22:21.102Z,21.40
2018-08-06T00:27:24.075Z,21.30
2018-08-06T00:32:27.416Z,21.30
2018-08-06T00:37:30.407Z,21.20
2018-08-06T00:42:33.639Z,21.20
2018-08-06T00:47:36.908Z,21.20
2018-08-06T00:52:40.023Z,21.20
2018-08-06T00:57:43.671Z,21.00
2018-08-06T01:02:46.748Z,21.00
2018-08-06T01:07:50.097Z,20.90
2018-08-06T01:12:53.211Z,20.90
2018-08-06T01:17:56.314Z,20.80
2018-08-06T01:22:59.345Z,20.80
2018-08-06T01:28:02.516Z,21.30
2018-08-06T01:33:05.707Z,21.40
2018-08-06T01:38:09.032Z,21.30
2018-08-06T01:43:12.195Z,21.20
2018-08-06T01:48:15.348Z,21.20
2018-08-06T01:53:18.347Z,21.00
2018-08-06T01:58:21.288Z,21.00
2018-08-06T02:03:24.578Z,20.80
2018-08-06T02:08:27.580Z,20.40
2018-08-06T02:13:30.581Z,20.20
2018-08-06T02:18:33.784Z,20.20
2018-08-06T02:23:37.008Z,20.00
2018-08-06T02:28:40.077Z,19.90
2018-08-06T02:33:43.287Z,19.80
2018-08-06T02:38:46.320Z,19.70
2018-08-06T02:43:49.733Z,19.50
2018-08-06T02:48:52.789Z,19.30
2018-08-06T02:53:56.052Z,19.20
2018-08-06T02:58:59.199Z,19.10
2018-08-06T03:04:02.428Z,19.10
2018-08-06T03:09:09.748Z,19.10
2018-08-06T03:14:12.790Z,19.10
2018-08-06T03:19:15.822Z,19.20
2018-08-06T03:24:18.815Z,19.20
2018-08-06T03:29:22.087Z,19.40
2018-08-06T03:34:25.127Z,19.20
2018-08-06T03:39:28.295Z,19.10
2018-08-06T03:44:31.298Z,19.30
2018-08-06T03:49:34.280Z,19.20
2018-08-06T03:54:37.592Z,19.20
2018-08-06T03:59:40.569Z,19.10
2018-08-06T04:04:43.563Z,19.30
2018-08-06T04:09:46.835Z,19.10
2018-08-06T04:14:49.923Z,19.00
2018-08-06T04:19:53.115Z,18.80
2018-08-06T04:24:56.202Z,18.90
2018-08-06T04:29:59.175Z,19.00
2018-08-06T04:35:02.368Z,19.10
2018-08-06T04:40:07.574Z,19.30
2018-08-06T04:45:11.135Z,19.30
2018-08-06T04:50:14.758Z,19.30
2018-08-06T04:55:17.776Z,19.70
2018-08-06T05:00:21.075Z,20.70
2018-08-06T05:05:24.403Z,21.80
2018-08-06T05:10:27.703Z,22.50
2018-08-06T05:15:30.795Z,23.20
2018-08-06T05:20:34.004Z,23.10
2018-08-06T05:25:37.238Z,23.80
2018-08-06T05:30:40.350Z,24.50
2018-08-06T05:35:43.539Z,24.40
2018-08-06T05:40:46.583Z,24.80
2018-08-06T05:45:49.900Z,24.90
2018-08-06T05:50:53.132Z,24.90
2018-08-06T05:55:56.259Z,25.30
2018-08-06T06:00:59.410Z,25.90
2018-08-06T06:06:02.678Z,25.70
2018-08-06T06:11:06.121Z,26.30
2018-08-06T06:16:09.229Z,26.60
2018-08-06T06:21:12.541Z,26.80
2018-08-06T06:31:20.695Z,26.20
2018-08-06T06:36:23.995Z,25.70
2018-08-06T06:41:26.993Z,25.30
2018-08-06T06:46:30.192Z,26.30
2018-08-06T06:51:33.139Z,26.70
2018-08-06T06:56:36.154Z,26.40
2018-08-06T07:01:39.420Z,26.10
2018-08-06T07:06:42.479Z,26.70
2018-08-06T07:11:45.575Z,27.00
2018-08-06T07:16:48.595Z,27.00
2018-08-06T07:21:51.652Z,26.90
2018-08-06T07:26:54.963Z,26.90
2018-08-06T07:31:58.120Z,26.70
2018-08-06T07:37:01.253Z,27.20
2018-08-06T07:42:04.473Z,27.20
2018-08-06T07:47:07.632Z,27.60
2018-08-06T07:52:10.801Z,28.30
2018-08-06T07:57:13.783Z,27.90
2018-08-06T08:02:16.850Z,28.00
2018-08-06T08:07:20.120Z,27.90
2018-08-06T08:12:23.424Z,28.30
2018-08-06T08:17:26.514Z,28.10
2018-08-06T08:22:29.525Z,28.70
2018-08-06T08:27:32.677Z,28.70
2018-08-06T08:32:35.947Z,28.40
2018-08-06T08:37:40.307Z,28.60
2018-08-06T08:42:43.797Z,29.10
2018-08-06T08:47:46.948Z,30.10
2018-08-06T08:52:50.074Z,29.60
2018-08-06T08:57:53.329Z,28.60
2018-08-06T09:02:56.534Z,29.10
2018-08-06T09:07:59.596Z,29.10
2018-08-06T09:13:02.659Z,29.20
2018-08-06T09:18:05.944Z,29.70
2018-08-06T09:23:08.937Z,28.80
2018-08-06T09:28:12.067Z,29.20
2018-08-06T09:33:15.136Z,29.80
2018-08-06T09:38:18.283Z,29.90
2018-08-06T09:43:21.263Z,29.90
2018-08-06T09:48:24.612Z,30.00
2018-08-06T09:53:27.668Z,30.30
2018-08-06T09:58:30.830Z,29.70
2018-08-06T10:03:34.018Z,29.60
2018-08-06T10:08:37.008Z,30.10
2018-08-06T10:13:40.057Z,29.80
2018-08-06T10:18:43.309Z,30.20
2018-08-06T10:23:46.589Z,30.20
2018-08-06T10:28:49.625Z,30.40
2018-08-06T10:33:53.247Z,30.50
2018-08-06T10:38:56.442Z,31.10
2018-08-06T10:43:59.423Z,30.60
2018-08-06T10:49:02.537Z,30.90
2018-08-06T10:54:05.835Z,31.10
2018-08-06T10:59:08.862Z,30.80
2018-08-06T11:04:11.896Z,31.70
2018-08-06T11:09:14.886Z,31.70
2018-08-06T11:14:18.112Z,31.60
2018-08-06T11:19:21.324Z,32.00
2018-08-06T11:24:24.660Z,31.80
2018-08-06T11:29:27.668Z,31.70
2018-08-06T11:34:30.960Z,31.50
2018-08-06T11:39:33.974Z,31.90
2018-08-06T11:44:37.256Z,31.50
2018-08-06T11:49:41.307Z,31.70
2018-08-06T11:54:44.615Z,31.60
2018-08-06T11:59:47.764Z,32.10
2018-08-06T12:04:51.023Z,32.60
2018-08-06T12:09:54.105Z,32.60
2018-08-06T12:14:57.062Z,32.50
2018-08-06T12:20:00.379Z,32.80
2018-08-06T12:25:05.309Z,33.00
2018-08-06T12:30:12.147Z,32.50
2018-08-06T12:35:15.918Z,32.20
2018-08-06T12:40:20.211Z,32.40
2018-08-06T12:45:23.286Z,33.00
2018-08-06T12:50:26.437Z,33.40
2018-08-06T12:55:29.624Z,32.80
2018-08-06T13:00:32.669Z,32.90
2018-08-06T13:05:35.880Z,33.40
2018-08-06T13:10:39.055Z,33.60
2018-08-06T13:15:42.128Z,33.60
2018-08-06T13:20:45.425Z,33.50
2018-08-06T13:25:48.616Z,33.80
2018-08-06T13:30:51.651Z,33.60
2018-08-06T13:35:54.767Z,33.50
2018-08-06T13:40:57.937Z,33.80
2018-08-06T13:46:01.168Z,34.10
2018-08-06T13:51:04.372Z,33.20
2018-08-06T13:56:07.789Z,33.20
2018-08-06T14:01:11.109Z,33.50
2018-08-06T14:06:14.400Z,33.70
2018-08-06T14:11:17.740Z,34.50
2018-08-06T14:16:21.015Z,34.10
2018-08-06T14:21:24.154Z,34.10
2018-08-06T14:26:27.315Z,33.80
2018-08-06T14:31:30.585Z,34.30
2018-08-06T14:36:33.852Z,34.10
2018-08-06T14:41:37.116Z,34.50
2018-08-06T14:46:40.363Z,34.90
2018-08-06T14:51:43.459Z,35.00
2018-08-06T14:56:46.427Z,35.50
2018-08-06T15:01:49.465Z,35.80
2018-08-06T15:06:52.618Z,34.90
2018-08-06T15:11:55.640Z,35.00
2018-08-06T15:16:59.042Z,35.00
2018-08-06T15:22:02.428Z,34.90
2018-08-06T15:27:05.959Z,34.90
2018-08-06T15:32:09.067Z,34.70
2018-08-06T15:37:12.471Z,34.80
2018-08-06T15:42:15.871Z,34.60
2018-08-06T15:47:18.940Z,34.60
2018-08-06T15:52:22.345Z,34.90
2018-08-06T15:57:25.593Z,34.60
2018-08-06T16:02:29.019Z,34.20
2018-08-06T16:07:32.341Z,34.00
2018-08-06T16:12:35.503Z,34.00
2018-08-06T16:17:39.576Z,34.20
2018-08-06T16:22:42.818Z,34.10
2018-08-06T16:27:46.049Z,34.10
2018-08-06T16:32:49.610Z,33.90
2018-08-06T16:37:55.854Z,33.70
2018-08-06T16:42:58.880Z,33.70
2018-08-06T16:48:02.066Z,33.80
2018-08-06T16:53:05.282Z,33.60
2018-08-06T16:58:08.611Z,33.50
2018-08-06T17:03:11.760Z,33.30
2018-08-06T17:08:14.858Z,33.20
2018-08-06T17:13:18.104Z,33.10
2018-08-06T17:18:21.258Z,33.20
2018-08-06T17:23:24.529Z,33.40
2018-08-06T17:28:27.611Z,33.30
2018-08-06T17:33:30.859Z,33.30
2018-08-06T17:38:34.132Z,33.20
2018-08-06T17:43:37.341Z,33.30
2018-08-06T17:48:40.392Z,33.10
2018-08-06T17:53:43.704Z,33.10
2018-08-06T17:58:46.908Z,32.80
2018-08-06T18:03:50.104Z,32.80
2018-08-06T18:08:53.468Z,32.70
2018-08-06T18:13:56.667Z,32.50
2018-08-06T18:18:59.873Z,32.50
2018-08-06T18:24:03.391Z,32.10
2018-08-06T18:29:06.881Z,31.80
2018-08-06T18:34:10.105Z,31.60
2018-08-06T18:39:13.400Z,31.10
2018-08-06T18:44:16.504Z,30.50
2018-08-06T18:49:19.697Z,30.10
2018-08-06T18:54:22.835Z,29.80
2018-08-06T18:59:25.884Z,29.60
2018-08-06T19:04:29.100Z,29.50
2018-08-06T19:09:32.228Z,29.10
2018-08-06T19:14:35.380Z,29.00
2018-08-06T19:19:38.456Z,28.70
2018-08-06T19:24:47.400Z,28.70
2018-08-06T19:29:50.494Z,28.70
2018-08-06T19:34:53.847Z,28.40
2018-08-06T19:39:56.896Z,28.30
2018-08-06T19:44:59.948Z,28.10
2018-08-06T19:50:09.657Z,28.10
2018-08-06T19:55:18.289Z,28.10
2018-08-06T20:00:23.713Z,28.10
2018-08-06T20:05:26.784Z,27.90
2018-08-06T20:10:29.935Z,27.90
2018-08-06T20:15:33.103Z,28.40
2018-08-06T20:20:36.416Z,28.30
2018-08-06T20:25:39.464Z,28.60
2018-08-06T20:30:42.730Z,28.40
2018-08-06T20:35:45.761Z,28.40
2018-08-06T20:40:48.870Z,28.10
2018-08-06T20:45:52.155Z,28.00
2018-08-06T20:50:55.329Z,27.90
2018-08-06T20:55:58.639Z,28.30
2018-08-06T21:01:01.733Z,28.10
2018-08-06T21:06:04.844Z,28.00
2018-08-06T21:11:08.201Z,27.90
2018-08-06T21:16:11.509Z,28.00
2018-08-06T21:21:14.869Z,27.80
2018-08-06T21:26:17.948Z,27.50
2018-08-06T21:31:21.171Z,27.60
2018-08-06T21:36:24.193Z,27.60
2018-08-06T21:41:27.230Z,27.20
2018-08-06T21:46:30.310Z,26.90
2018-08-06T21:51:33.532Z,26.80
2018-08-06T21:56:36.614Z,26.40
2018-08-06T22:01:39.739Z,26.40
2018-08-06T22:06:42.763Z,26.40
2018-08-06T22:11:45.980Z,26.30
2018-08-06T22:16:49.072Z,26.30
2018-08-06T22:21:52.231Z,26.30
2018-08-06T22:26:55.412Z,26.20
2018-08-06T22:31:58.524Z,26.20
2018-08-06T22:37:01.668Z,25.90
2018-08-06T22:42:04.704Z,26.00
2018-08-06T22:47:07.920Z,25.70
2018-08-06T22:52:10.926Z,25.70
2018-08-06T22:57:14.003Z,25.30
2018-08-06T23:02:17.045Z,25.40
2018-08-06T23:07:20.055Z,25.20
2018-08-06T23:12:23.295Z,25.20
2018-08-06T23:17:26.347Z,24.90
2018-08-06T23:22:29.350Z,24.80
2018-08-06T23:27:32.526Z,24.90
2018-08-06T23:32:35.679Z,24.70
2018-08-06T23:37:39.746Z,24.70
2018-08-06T23:47:46.346Z,24.50
2018-08-06T23:52:49.393Z,24.70
2018-08-06T23:57:55.249Z,24.70
